Time;durP1;ratioP1;P1;durP2;ratioP2;P2;SDS_P1;SDS_P2;PMS_P1;PMS_P2;Temp;Humidity;BMP_temperature;BMP_pressure;BME280_temperature;BME280_humidity;BME280_pressure;Samples;Min_cycle;Max_cycle;Signal;HPM_P1;HPM_P2
2020/12/12 00:01:32;;;;;;;;;53.40;43.00;;;;;7.58;52.15;97553.28;6211791;28;97222;-58
2020/12/12 00:04:34;;;;;;;;;60.00;44.00;;;;;7.86;52.32;97584.75;6188622;28;97232;-58
2020/12/12 00:07:35;;;;;;;;;51.60;41.00;;;;;7.80;51.98;97589.19;6183989;28;97359;-58
2020/12/12 00:10:37;;;;;;;;;59.40;44.00;;;;;7.75;52.14;97578.34;6185249;28;96970;-58
2020/12/12 00:13:38;;;;;;;;;54.00;42.00;;;;;7.90;52.17;97588.59;6186371;28;97594;-58
2020/12/12 00:16:39;;;;;;;;;57.00;43.40;;;;;7.96;52.00;97591.16;6186752;28;97930;-58
2020/12/12 00:19:41;;;;;;;;;56.60;41.00;;;;;8.06;51.70;97579.81;6201205;28;97348;-58
2020/12/12 00:22:42;;;;;;;;;54.60;41.80;;;;;8.06;51.48;97591.34;6186827;28;97714;-58
2020/12/12 00:25:47;;;;;;;;;53.00;41.75;;;;;7.83;51.60;97580.66;6187763;28;97576;-58
2020/12/12 00:28:57;;;;;;;;;53.40;42.40;;;;;7.74;51.54;97539.16;6186183;28;97522;-58
2020/12/12 00:31:59;;;;;;;;;53.40;42.00;;;;;7.93;51.75;97594.28;6200460;28;97111;-58
2020/12/12 00:35:02;;;;;;;;;56.50;43.75;;;;;7.72;52.10;97592.25;6168613;28;99854;-58
2020/12/12 00:38:03;;;;;;;;;50.00;39.75;;;;;7.52;52.13;97570.34;6185521;28;97340;-57
2020/12/12 00:41:05;;;;;;;;;52.00;39.00;;;;;7.76;52.41;97598.75;6171592;28;98754;-58
2020/12/12 00:44:08;;;;;;;;;53.25;41.25;;;;;7.80;52.23;97595.38;6186080;28;96776;-58
2020/12/12 00:47:09;;;;;;;;;53.00;40.60;;;;;7.82;52.10;97595.13;6187013;28;97233;-58
2020/12/12 00:50:11;;;;;;;;;55.60;42.00;;;;;7.89;52.04;97597.69;6202028;28;96458;-58
2020/12/12 00:53:13;;;;;;;;;51.40;41.00;;;;;7.76;51.83;97561.22;6187436;28;99709;-57
2020/12/12 00:56:15;;;;;;;;;51.00;41.00;;;;;7.61;51.58;97561.69;6179110;28;97087;-58
2020/12/12 00:59:18;;;;;;;;;50.20;40.00;;;;;7.48;52.40;97601.34;6186786;28;98208;-58
2020/12/12 01:02:20;;;;;;;;;47.00;36.80;;;;;7.46;52.42;97568.56;6186153;28;99081;-58
2020/12/12 01:05:21;;;;;;;;;51.40;41.00;;;;;7.38;52.19;97557.13;6161408;28;99122;-58
2020/12/12 01:08:23;;;;;;;;;48.50;38.00;;;;;7.30;52.22;97532.56;6181345;28;97086;-58
2020/12/12 01:11:24;;;;;;;;;50.40;41.00;;;;;7.66;51.96;97567.16;6177037;28;98052;-57
2020/12/12 01:14:25;;;;;;;;;51.20;40.00;;;;;7.83;51.80;97570.75;6182031;28;97523;-58
2020/12/12 01:17:27;;;;;;;;;49.60;38.00;;;;;7.90;52.03;97580.53;6187163;28;96691;-58
2020/12/12 01:20:28;;;;;;;;;52.00;40.40;;;;;7.94;51.58;97587.06;6187047;28;97519;-58
2020/12/12 01:23:30;;;;;;;;;51.80;42.00;;;;;8.00;51.53;97588.81;6186177;28;97023;-58
2020/12/12 01:26:32;;;;;;;;;52.60;41.80;;;;;8.01;51.32;97599.31;6168664;28;96796;-58
2020/12/12 01:29:34;;;;;;;;;53.40;42.00;;;;;8.07;50.86;97595.66;6186864;28;97092;-58
2020/12/12 01:32:35;;;;;;;;;49.60;39.00;;;;;7.93;51.22;97596.97;6181350;28;97906;-58
2020/12/12 01:35:36;;;;;;;;;50.60;39.80;;;;;7.52;52.16;97602.50;6175568;28;96913;-57
2020/12/12 01:38:38;;;;;;;;;51.00;41.00;;;;;7.58;51.95;97597.00;6182935;28;97002;-58
2020/12/12 01:41:39;;;;;;;;;52.40;40.00;;;;;7.21;51.85;97548.19;6186397;28;97642;-58
2020/12/12 01:44:40;;;;;;;;;46.00;37.00;;;;;7.60;52.10;97586.88;6186434;28;96469;-58
2020/12/12 01:47:42;;;;;;;;;47.25;36.50;;;;;7.70;51.87;97580.91;6195181;28;96675;-58
2020/12/12 01:50:45;;;;;;;;;47.00;38.40;;;;;7.75;51.83;97579.16;6186555;28;97144;-58
2020/12/12 01:53:49;;;;;;;;;52.00;39.00;;;;;7.77;51.55;97563.63;6184707;28;96978;-58
2020/12/12 01:56:53;;;;;;;;;49.25;39.00;;;;;7.94;51.48;97577.16;6186244;28;97403;-57
2020/12/12 01:59:55;;;;;;;;;47.00;38.00;;;;;7.79;51.49;97569.59;6185594;28;97347;-58
2020/12/12 02:02:57;;;;;;;;;48.80;39.00;;;;;7.64;52.03;97580.00;6186665;28;96629;-58
2020/12/12 02:06:00;;;;;;;;;48.80;36.00;;;;;7.74;52.19;97574.84;6184240;28;97548;-57
2020/12/12 02:09:02;;;;;;;;;54.80;39.40;;;;;7.84;52.11;97575.06;6175441;28;96976;-58
2020/12/12 02:12:05;;;;;;;;;50.00;38.00;;;;;7.86;52.06;97563.28;6178600;28;97134;-58
2020/12/12 02:15:07;;;;;;;;;46.00;35.00;;;;;7.94;51.95;97568.28;6157391;28;97264;-58
2020/12/12 02:18:20;;;;;;;;;48.67;38.67;;;;;7.87;51.39;97533.50;6178971;28;97155;-58
2020/12/12 02:21:25;;;;;;;;;45.00;38.00;;;;;7.56;51.65;97517.84;6165925;28;97111;-58
2020/12/12 02:24:33;;;;;;;;;48.00;38.40;;;;;7.92;51.88;97562.31;6185683;28;96710;-58
2020/12/12 02:27:34;;;;;;;;;46.25;37.00;;;;;7.96;51.49;97575.06;6185272;28;96636;-58
2020/12/12 02:30:35;;;;;;;;;45.60;35.00;;;;;7.88;51.70;97556.63;6169745;28;97922;-57
2020/12/12 02:33:38;;;;;;;;;42.60;33.60;;;;;7.87;51.81;97571.09;6175666;28;97410;-58
2020/12/12 02:36:40;;;;;;;;;42.00;35.00;;;;;7.99;51.78;97566.50;6183905;28;98448;-58
2020/12/12 02:39:41;;;;;;;;;43.00;35.00;;;;;7.85;51.64;97514.19;6183911;28;96673;-58
2020/12/12 02:42:42;;;;;;;;;46.00;33.50;;;;;7.98;51.66;97521.94;6185693;28;97381;-58
2020/12/12 02:45:47;;;;;;;;;43.50;35.00;;;;;8.10;51.49;97535.34;6185745;28;97194;-58
2020/12/12 02:48:49;;;;;;;;;45.60;36.00;;;;;8.20;51.46;97543.59;6185237;28;97606;-58
2020/12/12 02:51:51;;;;;;;;;46.50;36.00;;;;;8.19;51.38;97555.38;6189130;28;97416;-58
2020/12/12 02:54:52;;;;;;;;;42.75;32.75;;;;;8.13;51.19;97542.91;6189286;28;97035;-58
2020/12/12 02:57:54;;;;;;;;;45.20;35.00;;;;;7.89;51.05;97515.31;6173914;28;96943;-58
2020/12/12 03:00:55;;;;;;;;;40.60;32.60;;;;;8.21;51.17;97542.50;6187035;28;98275;-58
2020/12/12 03:03:57;;;;;;;;;40.60;32.00;;;;;8.14;50.85;97539.16;6188552;28;97509;-58
2020/12/12 03:06:58;;;;;;;;;39.80;32.00;;;;;8.21;51.03;97540.66;6172930;28;97910;-58
2020/12/12 03:10:04;;;;;;;;;38.00;32.00;;;;;7.61;51.71;97521.47;6186024;28;97267;-58
2020/12/12 03:13:06;;;;;;;;;40.00;33.40;;;;;7.16;53.02;97512.41;6179648;28;97428;-58
2020/12/12 03:16:08;;;;;;;;;40.00;33.40;;;;;7.31;53.23;97550.28;6179087;28;96990;-58
2020/12/12 03:19:09;;;;;;;;;45.00;35.00;;;;;7.44;53.10;97547.34;6189313;28;96931;-58
2020/12/12 03:22:11;;;;;;;;;41.25;32.25;;;;;7.52;52.96;97549.69;6189580;28;97356;-58
2020/12/12 03:25:12;;;;;;;;;42.67;34.33;;;;;7.64;52.75;97547.81;6179385;28;97421;-58
2020/12/12 03:28:14;;;;;;;;;44.00;35.00;;;;;7.64;52.49;97539.75;6182676;28;97470;-58
2020/12/12 03:31:15;;;;;;;;;40.25;32.00;;;;;7.83;52.52;97549.28;6188767;28;97411;-58
2020/12/12 03:34:17;;;;;;;;;45.00;32.60;;;;;7.77;52.52;97539.50;6186284;28;98157;-58
2020/12/12 03:37:18;;;;;;;;;42.25;35.00;;;;;7.60;52.29;97519.81;6189287;28;97747;-58
2020/12/12 03:40:22;;;;;;;;;43.80;34.40;;;;;7.44;52.87;97515.19;6172277;28;97128;-58
2020/12/12 03:43:25;;;;;;;;;42.60;33.40;;;;;7.61;52.92;97537.56;6188907;28;97393;-58
2020/12/12 03:46:26;;;;;;;;;44.60;35.00;;;;;7.59;53.07;97525.41;6188773;28;98057;-58
2020/12/12 03:49:28;;;;;;;;;46.50;33.75;;;;;7.70;52.87;97529.97;6188482;28;97078;-58
2020/12/12 03:52:29;;;;;;;;;39.00;32.00;;;;;7.51;53.12;97515.06;6188510;28;96740;-58
2020/12/12 03:55:31;;;;;;;;;42.50;33.00;;;;;7.48;53.65;97518.22;6178891;28;96675;-58
2020/12/12 03:58:32;;;;;;;;;42.50;33.75;;;;;7.66;53.13;97512.72;6186278;28;97512;-58
2020/12/12 04:01:33;;;;;;;;;43.50;35.00;;;;;7.47;53.05;97481.72;6203314;28;97153;-58
2020/12/12 04:04:35;;;;;;;;;39.60;33.20;;;;;7.51;53.38;97529.28;6182871;28;98328;-58
2020/12/12 04:07:37;;;;;;;;;42.50;33.75;;;;;7.52;53.39;97524.75;6176326;28;97133;-58
2020/12/12 04:10:38;;;;;;;;;39.40;32.00;;;;;7.29;53.50;97523.69;6188084;28;97187;-58
2020/12/12 04:13:40;;;;;;;;;38.80;32.00;;;;;7.28;53.71;97523.94;6186709;28;97114;-58
2020/12/12 04:16:41;;;;;;;;;42.60;33.00;;;;;6.95;54.05;97493.16;6187582;28;98181;-58
2020/12/12 04:19:43;;;;;;;;;44.00;34.00;;;;;7.22;54.23;97509.63;6188270;28;96613;-58
2020/12/12 04:22:45;;;;;;;;;42.50;33.00;;;;;7.52;53.79;97511.34;6187739;28;98623;-58
2020/12/12 04:25:46;;;;;;;;;45.40;35.40;;;;;7.35;53.49;97473.69;6188012;28;96607;-58
2020/12/12 04:28:47;;;;;;;;;41.60;34.60;;;;;7.58;53.19;97521.91;6185827;28;96542;-58
2020/12/12 04:31:49;;;;;;;;;41.40;33.00;;;;;7.49;53.43;97507.25;6187869;28;99042;-58
2020/12/12 04:34:50;;;;;;;;;45.60;35.20;;;;;7.46;53.52;97485.47;6179565;28;99240;-58
2020/12/12 04:37:52;;;;;;;;;44.60;35.20;;;;;7.69;53.41;97499.63;6178583;28;97119;-58
2020/12/12 04:40:53;;;;;;;;;42.00;33.00;;;;;7.78;53.12;97505.44;6187918;28;96866;-58
2020/12/12 04:43:55;;;;;;;;;44.20;35.00;;;;;7.78;52.75;97484.78;6186554;28;96568;-58
2020/12/12 04:46:57;;;;;;;;;45.00;35.00;;;;;7.62;52.55;97455.22;6178270;28;97441;-58
2020/12/12 04:49:59;;;;;;;;;45.00;35.00;;;;;7.78;52.58;97475.94;6179227;28;96456;-58
2020/12/12 04:53:18;;;;;;;;;41.60;30.00;;;;;7.99;52.59;97512.03;6187642;28;98353;-57
2020/12/12 04:56:23;;;;;;;;;42.80;31.00;;;;;7.81;52.44;97484.34;6191480;28;97043;-58
2020/12/12 04:59:29;;;;;;;;;44.20;34.20;;;;;7.75;52.49;97466.50;6187324;28;96660;-58
2020/12/12 05:02:33;;;;;;;;;43.20;33.00;;;;;8.10;52.57;97517.38;6186400;28;97034;-58
2020/12/12 05:05:34;;;;;;;;;43.60;32.60;;;;;8.13;52.22;97521.44;6186500;28;96790;-58
2020/12/12 05:08:36;;;;;;;;;34.80;29.60;;;;;8.10;52.11;97522.72;6170584;28;96766;-58
2020/12/12 05:11:38;;;;;;;;;34.40;30.00;;;;;8.20;52.01;97527.47;6186851;28;97547;-58
2020/12/12 05:14:39;;;;;;;;;36.00;30.80;;;;;8.22;51.92;97526.16;6187028;28;96432;-58
2020/12/12 05:17:47;;;;;;;;;34.00;30.00;;;;;8.16;51.92;97527.13;6186588;28;96416;-58
2020/12/12 05:20:49;;;;;;;;;32.80;29.00;;;;;8.23;51.99;97529.69;6187975;28;96754;-58
2020/12/12 05:23:50;;;;;;;;;35.75;30.00;;;;;8.14;51.77;97501.59;6187120;28;98608;-57
2020/12/12 05:26:59;;;;;;;;;31.80;28.20;;;;;8.27;51.36;97534.31;6187088;28;97674;-58
2020/12/12 05:30:00;;;;;;;;;43.40;33.00;;;;;8.19;51.58;97532.03;6186186;28;96877;-58
2020/12/12 05:33:03;;;;;;;;;30.40;27.00;;;;;8.27;51.46;97541.56;6177682;28;97113;-58
2020/12/12 05:36:05;;;;;;;;;37.75;31.00;;;;;8.24;51.30;97536.69;6182759;28;97585;-58
2020/12/12 05:39:12;;;;;;;;;32.80;29.00;;;;;8.13;51.25;97514.19;6171987;28;97409;-58
2020/12/12 05:42:19;;;;;;;;;31.60;29.00;;;;;8.14;51.13;97512.31;6187167;28;97016;-58
2020/12/12 05:45:21;;;;;;;;;31.80;27.80;;;;;8.18;51.37;97533.06;6175423;28;98397;-58
2020/12/12 05:48:22;;;;;;;;;33.80;30.00;;;;;8.13;51.46;97535.66;6181890;28;97699;-58
2020/12/12 05:51:27;;;;;;;;;33.40;28.40;;;;;7.81;51.71;97508.47;6186829;28;97373;-58
2020/12/12 05:54:29;;;;;;;;;30.00;25.00;;;;;8.04;51.45;97539.78;6184735;28;97340;-58
2020/12/12 05:57:31;;;;;;;;;32.00;27.00;;;;;7.98;51.30;97532.69;6180643;28;97172;-60
2020/12/12 06:00:33;;;;;;;;;28.50;26.00;;;;;7.87;51.36;97525.47;6183177;28;97464;-60
2020/12/12 06:04:02;;;;;;;;;26.00;23.20;;;;;7.96;51.36;97533.97;6173810;28;96695;-61
2020/12/12 06:07:08;;;;;;;;;30.60;28.00;;;;;7.59;52.12;97539.66;6183261;28;96702;-60
2020/12/12 06:10:13;;;;;;;;;27.80;24.00;;;;;7.74;51.79;97545.34;6198572;28;97109;-60
2020/12/12 06:13:17;;;;;;;;;27.33;23.00;;;;;7.52;52.13;97547.00;6174018;28;97685;-60
2020/12/12 06:16:25;;;;;;;;;28.40;23.60;;;;;7.47;52.26;97549.59;6178000;28;97607;-60
2020/12/12 06:19:32;;;;;;;;;31.00;26.00;;;;;7.45;52.56;97550.84;6183687;28;96597;-60
2020/12/12 06:22:34;;;;;;;;;24.25;20.25;;;;;7.50;52.59;97554.47;6183396;28;97502;-60
2020/12/12 06:25:35;;;;;;;;;29.00;26.00;;;;;7.62;52.45;97549.09;6177551;28;97182;-60
2020/12/12 06:28:43;;;;;;;;;29.60;26.40;;;;;7.74;52.19;97550.69;6184690;28;98510;-60
2020/12/12 06:31:45;;;;;;;;;32.00;29.40;;;;;7.83;51.80;97545.78;6187685;28;98021;-60
2020/12/12 06:34:48;;;;;;;;;29.40;24.40;;;;;7.59;51.92;97539.66;6188040;28;97420;-60
2020/12/12 06:37:49;;;;;;;;;25.60;22.00;;;;;7.60;51.87;97546.66;6187599;28;97631;-60
2020/12/12 06:40:53;;;;;;;;;27.20;23.00;;;;;7.45;51.98;97540.13;6187806;28;97556;-60
2020/12/12 06:43:55;;;;;;;;;29.00;24.00;;;;;7.34;52.03;97512.28;6187779;28;97146;-60
2020/12/12 06:46:57;;;;;;;;;26.60;24.60;;;;;7.57;52.01;97539.09;6187763;28;96547;-60
2020/12/12 06:50:16;;;;;;;;;30.00;26.00;;;;;7.76;51.72;97551.28;6186021;28;96767;-60
2020/12/12 06:53:21;;;;;;;;;29.00;25.75;;;;;7.55;51.82;97532.31;6187906;28;98491;-60
2020/12/12 06:56:31;;;;;;;;;28.00;24.00;;;;;7.44;51.96;97531.25;6187136;28;97007;-60
2020/12/12 06:59:37;;;;;;;;;32.50;28.50;;;;;7.75;51.95;97546.16;6187241;28;97365;-61
2020/12/12 07:02:53;;;;;;;;;26.00;24.00;;;;;7.82;51.78;97560.25;6188451;28;98508;-60
2020/12/12 07:06:05;;;;;;;;;28.80;23.20;;;;;7.88;51.60;97559.31;6186622;28;96513;-60
2020/12/12 07:09:08;;;;;;;;;26.00;23.00;;;;;7.24;51.22;97447.72;6171872;28;97113;-60
2020/12/12 07:12:10;;;;;;;;;27.00;26.00;;;;;7.98;51.21;97553.31;6186975;28;96846;-60
2020/12/12 07:15:11;;;;;;;;;27.00;25.67;;;;;7.83;51.17;97551.97;6187516;28;97067;-60
2020/12/12 07:18:13;;;;;;;;;30.60;25.00;;;;;7.70;51.20;97508.50;6184817;28;97474;-60
2020/12/12 07:21:15;;;;;;;;;29.25;23.00;;;;;8.04;51.04;97542.47;6170048;28;97091;-60
2020/12/12 07:24:16;;;;;;;;;31.00;25.33;;;;;8.13;50.94;97545.59;6166953;28;97430;-60
2020/12/12 07:27:17;;;;;;;;;26.80;23.40;;;;;8.14;50.69;97539.16;6186653;28;96893;-60
2020/12/12 07:30:19;;;;;;;;;31.50;28.00;;;;;8.17;50.88;97542.19;6186389;28;96588;-60
2020/12/12 07:33:20;;;;;;;;;30.00;26.00;;;;;8.15;50.71;97540.81;6175982;28;96909;-59
2020/12/12 07:36:21;;;;;;;;;31.40;27.20;;;;;8.17;50.66;97549.41;6171454;28;97141;-60
2020/12/12 07:39:31;;;;;;;;;30.80;26.40;;;;;7.92;50.39;97540.84;6180374;28;96688;-60
2020/12/12 07:42:35;;;;;;;;;26.60;24.00;;;;;7.72;50.58;97522.50;6187238;28;96551;-60
2020/12/12 07:49:00;;;;;;;;;33.00;26.00;;;;;7.76;51.20;97547.78;6185398;28;97630;-60
2020/12/12 07:52:12;;;;;;;;;29.80;27.40;;;;;7.76;51.26;97547.78;6184005;28;97161;-60
2020/12/12 07:55:19;;;;;;;;;31.25;25.75;;;;;7.87;51.19;97546.94;6180998;28;98863;-60
2020/12/12 07:58:27;;;;;;;;;30.40;27.20;;;;;7.62;50.93;97512.38;6183830;28;97642;-61
2020/12/12 08:01:29;;;;;;;;;29.00;25.00;;;;;8.02;50.99;97547.25;6184493;28;97539;-60
2020/12/12 08:04:32;;;;;;;;;28.60;25.00;;;;;8.08;50.52;97548.16;6183732;28;97036;-60
2020/12/12 08:07:34;;;;;;;;;32.00;29.40;;;;;8.11;50.84;97547.72;6192954;28;98389;-60
2020/12/12 08:10:37;;;;;;;;;29.00;23.20;;;;;7.94;50.55;97569.09;6184008;28;97272;-60
2020/12/12 08:13:38;;;;;;;;;30.75;27.00;;;;;7.99;50.79;97563.84;6184104;28;98553;-60
2020/12/12 08:16:45;;;;;;;;;35.00;30.00;;;;;7.82;50.57;97517.31;6184484;28;96996;-60
2020/12/12 08:19:48;;;;;;;;;35.00;28.75;;;;;7.88;50.31;97520.91;6182571;28;98563;-60
2020/12/12 08:22:51;;;;;;;;;36.60;30.60;;;;;8.10;50.40;97557.63;6184685;28;97190;-59
2020/12/12 08:25:58;;;;;;;;;32.20;27.20;;;;;8.08;50.20;97556.22;6183722;28;97695;-60
2020/12/12 08:29:03;;;;;;;;;36.40;30.00;;;;;8.10;50.39;97557.63;6183775;28;97160;-60
2020/12/12 08:32:05;;;;;;;;;29.00;28.00;;;;;8.14;50.11;97568.69;6182699;28;96687;-59
2020/12/12 08:35:14;;;;;;;;;30.00;27.40;;;;;7.89;50.71;97579.72;6182966;28;97129;-60
2020/12/12 08:38:15;;;;;;;;;28.25;24.25;;;;;7.90;50.71;97576.00;6182800;28;96739;-60
2020/12/12 08:41:18;;;;;;;;;24.33;22.33;;;;;7.98;50.42;97580.16;6183862;28;96744;-60
2020/12/12 08:44:23;;;;;;;;;33.40;29.00;;;;;7.46;50.83;97539.09;6184897;28;97506;-60
2020/12/12 08:47:24;;;;;;;;;29.80;26.60;;;;;7.66;50.97;97574.41;6185375;28;96746;-60
2020/12/12 08:50:31;;;;;;;;;34.50;28.00;;;;;7.64;51.17;97577.31;6184283;28;96843;-60
2020/12/12 08:53:32;;;;;;;;;31.40;27.80;;;;;7.46;51.44;97568.56;6184637;28;96539;-60
2020/12/12 08:56:33;;;;;;;;;28.00;26.40;;;;;7.33;52.08;97564.28;6179996;28;96973;-60
2020/12/12 08:59:35;;;;;;;;;30.00;26.40;;;;;7.30;52.03;97544.09;6189038;28;97002;-60
2020/12/12 09:02:36;;;;;;;;;35.25;30.00;;;;;7.44;51.94;97558.06;6166640;28;98581;-60
2020/12/12 09:05:38;;;;;;;;;35.50;30.00;;;;;7.54;51.92;97569.03;6184882;28;97456;-60
2020/12/12 09:08:39;;;;;;;;;32.25;30.00;;;;;7.69;51.71;97568.56;6184719;28;97717;-60
2020/12/12 09:11:53;;;;;;;;;33.00;27.60;;;;;7.81;51.12;97562.13;6173723;28;96477;-57
2020/12/12 09:14:55;;;;;;;;;32.75;29.75;;;;;7.54;51.72;97565.53;6183505;28;97424;-58
2020/12/12 09:18:12;;;;;;;;;31.00;27.00;;;;;7.62;51.48;97568.69;6183920;28;97439;-58
2020/12/12 09:21:14;;;;;;;;;44.50;32.25;;;;;7.79;51.53;97566.91;6194896;28;97053;-58
2020/12/12 09:24:18;;;;;;;;;35.33;30.00;;;;;7.86;51.44;97574.03;6184570;28;97679;-60
2020/12/12 09:27:21;;;;;;;;;33.80;29.00;;;;;7.81;51.24;97566.69;6183604;28;99125;-60
2020/12/12 09:30:22;;;;;;;;;35.00;30.00;;;;;7.71;51.57;97564.59;6184630;28;97416;-59
2020/12/12 09:33:25;;;;;;;;;31.20;28.00;;;;;7.74;51.37;97566.81;6183291;28;97415;-60
2020/12/12 09:36:26;;;;;;;;;32.80;29.80;;;;;7.84;51.42;97561.66;6185203;28;98762;-59
2020/12/12 09:39:28;;;;;;;;;31.00;27.75;;;;;8.10;51.35;97567.53;6185666;28;98492;-60
2020/12/12 09:42:29;;;;;;;;;34.00;29.00;;;;;8.22;51.04;97555.69;6185835;28;97117;-60
2020/12/12 09:45:31;;;;;;;;;33.60;29.60;;;;;8.35;50.87;97543.09;6185234;28;97210;-59
2020/12/12 09:48:33;;;;;;;;;33.60;28.60;;;;;8.26;50.54;97524.63;6185478;28;98599;-60
2020/12/12 09:51:34;;;;;;;;;34.60;30.00;;;;;8.52;50.17;97547.44;6185137;28;97709;-59
2020/12/12 09:54:36;;;;;;;;;33.80;28.40;;;;;8.61;51.03;97551.38;6185172;28;97202;-59
2020/12/12 09:57:37;;;;;;;;;34.50;30.00;;;;;8.67;49.57;97555.78;6183553;28;96877;-60
2020/12/12 10:00:41;;;;;;;;;33.00;29.00;;;;;8.77;49.38;97555.13;6188772;28;97629;-60
2020/12/12 10:03:42;;;;;;;;;31.25;28.25;;;;;8.82;49.13;97551.72;6188969;28;96536;-60
2020/12/12 10:06:44;;;;;;;;;39.60;33.00;;;;;8.69;48.76;97551.00;6188664;28;96615;-60
2020/12/12 10:09:45;;;;;;;;;35.00;29.00;;;;;8.85;48.82;97553.91;6189286;28;97383;-60
2020/12/12 10:12:47;;;;;;;;;32.33;27.33;;;;;8.74;48.81;97554.81;6188892;28;97386;-60
2020/12/12 10:15:48;;;;;;;;;32.80;29.40;;;;;8.73;48.99;97550.50;6188432;28;96571;-60
2020/12/12 10:18:50;;;;;;;;;30.20;27.20;;;;;8.70;48.93;97549.09;6188131;28;98118;-60
2020/12/12 10:21:51;;;;;;;;;34.60;30.00;;;;;8.40;49.61;97549.38;6187704;28;97487;-59
2020/12/12 10:24:52;;;;;;;;;31.20;28.00;;;;;8.38;49.75;97554.16;6188185;28;97135;-60
2020/12/12 10:27:56;;;;;;;;;36.00;30.00;;;;;8.29;50.01;97539.47;6188424;28;96667;-60
2020/12/12 10:30:57;;;;;;;;;33.60;30.00;;;;;8.52;49.67;97552.00;6188452;28;97491;-60
2020/12/12 10:33:58;;;;;;;;;33.67;30.00;;;;;8.63;49.82;97557.31;6187963;28;96999;-60
2020/12/12 10:37:03;;;;;;;;;35.80;30.00;;;;;8.83;49.83;97556.88;6185941;28;96724;-60
2020/12/12 10:43:09;;;;;;;;;35.60;28.00;;;;;9.00;50.67;97555.00;6187579;28;99075;-60
2020/12/12 10:46:30;;;;;;;;;36.80;30.00;;;;;9.17;50.10;97551.50;6188831;28;96502;-60
2020/12/12 10:49:32;;;;;;;;;32.80;29.20;;;;;9.21;49.11;97545.38;6187873;28;96910;-60
2020/12/12 10:52:34;;;;;;;;;37.00;30.00;;;;;9.29;49.02;97553.03;6187873;28;97454;-60
2020/12/12 10:55:36;;;;;;;;;33.80;30.00;;;;;9.34;48.67;97561.16;6186782;28;97215;-60
2020/12/12 10:58:37;;;;;;;;;37.40;32.00;;;;;9.39;48.49;97563.94;6188139;28;97488;-59
2020/12/12 11:01:39;;;;;;;;;32.00;30.00;;;;;9.46;48.30;97564.59;6187744;28;98437;-60
2020/12/12 11:04:42;;;;;;;;;34.00;30.40;;;;;9.39;48.03;97560.44;6187861;28;97460;-60
2020/12/12 11:07:43;;;;;;;;;37.60;31.00;;;;;9.46;47.93;97567.28;6186832;28;98720;-60
2020/12/12 11:10:45;;;;;;;;;36.00;30.60;;;;;9.40;48.05;97572.81;6185909;28;97674;-60
2020/12/12 11:13:54;;;;;;;;;42.80;33.20;;;;;9.32;48.19;97549.03;6186045;28;97736;-60
2020/12/12 11:16:56;;;;;;;;;40.40;30.40;;;;;9.29;47.90;97542.25;6185248;28;97696;-60
2020/12/12 11:19:58;;;;;;;;;38.60;30.60;;;;;9.47;47.93;97574.31;6186829;28;97726;-60
2020/12/12 11:22:59;;;;;;;;;36.00;31.20;;;;;9.41;47.98;97567.22;6186614;28;98903;-60
2020/12/12 11:26:00;;;;;;;;;38.20;31.20;;;;;9.44;48.01;97568.56;6187110;28;98073;-59
2020/12/12 11:29:02;;;;;;;;;37.40;30.00;;;;;9.49;49.19;97577.53;6186425;28;97465;-60
2020/12/12 11:32:04;;;;;;;;;41.80;33.00;;;;;9.49;48.18;97579.41;6171313;28;96719;-59
2020/12/12 11:35:12;;;;;;;;;40.40;32.40;;;;;9.53;47.78;97567.91;6184549;28;97256;-60
2020/12/12 11:38:21;;;;;;;;;36.00;31.00;;;;;9.55;47.65;97578.44;6185395;28;97409;-60
2020/12/12 11:41:55;;;;;;;;;39.00;32.00;;;;;9.51;47.72;97575.44;6187075;28;97388;-60
2020/12/12 11:48:15;;;;;;;;;35.50;30.00;;;;;9.34;48.25;97576.50;6186614;28;97304;-60
2020/12/12 11:51:17;;;;;;;;;39.00;30.00;;;;;9.36;48.58;97575.19;6175056;28;97295;-60
2020/12/12 11:54:19;;;;;;;;;37.40;32.00;;;;;9.34;48.45;97566.56;6181153;28;96484;-60
2020/12/12 11:57:20;;;;;;;;;37.40;32.00;;;;;9.25;48.24;97577.97;6172721;28;98440;-60
2020/12/12 12:00:24;;;;;;;;;38.60;31.00;;;;;9.32;48.21;97573.25;6186298;28;96355;-60
2020/12/12 12:03:26;;;;;;;;;42.00;32.60;;;;;9.35;48.52;97581.63;6176404;28;96826;-60
2020/12/12 12:06:27;;;;;;;;;36.00;31.00;;;;;9.40;48.32;97584.41;6192036;28;97501;-60
2020/12/12 12:09:38;;;;;;;;;35.60;30.00;;;;;9.48;48.20;97583.97;6186603;28;98531;-60
2020/12/12 12:12:40;;;;;;;;;38.00;32.00;;;;;9.49;48.14;97588.31;6186424;28;96604;-60
2020/12/12 12:15:42;;;;;;;;;39.20;33.00;;;;;9.50;48.23;97589.13;6185875;28;98385;-60
2020/12/12 12:19:02;;;;;;;;;34.60;30.60;;;;;9.55;48.06;97591.88;6182020;28;98178;-60
2020/12/12 12:22:04;;;;;;;;;37.40;31.40;;;;;9.62;47.85;97583.66;6169077;28;97306;-60
2020/12/12 12:25:06;;;;;;;;;36.00;30.00;;;;;9.53;47.97;97588.63;6187046;28;97327;-60
2020/12/12 12:28:07;;;;;;;;;37.40;30.60;;;;;9.51;48.20;97588.06;6187006;28;97529;-60
2020/12/12 12:31:09;;;;;;;;;41.80;32.80;;;;;9.50;48.36;97591.81;6185563;28;96682;-60
2020/12/12 12:34:11;;;;;;;;;39.60;32.00;;;;;9.46;48.30;97591.50;6179855;28;96573;-59
2020/12/12 12:37:12;;;;;;;;;43.00;34.00;;;;;9.52;48.39;97589.69;6178696;28;97113;-60
2020/12/12 12:40:14;;;;;;;;;38.00;32.00;;;;;9.46;48.32;97591.50;6185125;28;97381;-60
2020/12/12 12:43:16;;;;;;;;;43.80;33.40;;;;;9.43;48.41;97596.56;6185258;28;98410;-60
2020/12/12 12:46:21;;;;;;;;;36.00;30.00;;;;;9.47;48.45;97603.06;6183662;28;98469;-60
2020/12/12 12:49:23;;;;;;;;;35.40;30.00;;;;;9.51;48.42;97599.66;6186229;28;97543;-60
2020/12/12 12:52:25;;;;;;;;;41.60;33.00;;;;;9.59;48.42;97601.09;6186199;28;96661;-60
2020/12/12 12:55:26;;;;;;;;;42.60;32.60;;;;;9.62;48.37;97600.63;6186148;28;97295;-60
2020/12/12 12:58:28;;;;;;;;;35.00;29.20;;;;;9.34;48.26;97561.16;6186139;28;97462;-60
2020/12/12 13:01:29;;;;;;;;;39.00;30.00;;;;;9.37;48.66;97605.59;6186549;28;99198;-60
2020/12/12 13:04:31;;;;;;;;;35.40;30.20;;;;;9.42;48.51;97609.19;6186281;28;97440;-60
2020/12/12 13:07:32;;;;;;;;;35.80;29.40;;;;;9.48;48.65;97600.13;6184193;28;97045;-59
2020/12/12 13:10:34;;;;;;;;;32.00;29.60;;;;;9.37;48.74;97605.59;6186531;28;97067;-60
2020/12/12 13:13:35;;;;;;;;;37.40;32.00;;;;;9.07;49.10;97573.66;6182920;28;97053;-60
2020/12/12 13:16:37;;;;;;;;;36.40;29.40;;;;;9.24;49.38;97613.97;6186399;28;97384;-59
2020/12/12 13:19:46;;;;;;;;;45.80;33.00;;;;;9.24;49.54;97614.78;6185853;28;96855;-59
2020/12/12 13:22:47;;;;;;;;;38.40;32.00;;;;;9.32;49.43;97622.47;6185328;28;96683;-60
2020/12/12 13:25:49;;;;;;;;;41.80;33.00;;;;;9.30;49.52;97621.06;6185538;28;97095;-60
2020/12/12 13:31:57;;;;;;;;;44.20;33.60;;;;;9.28;49.52;97625.91;6184455;28;97788;-60
2020/12/12 13:34:59;;;;;;;;;36.20;30.60;;;;;9.32;49.59;97630.53;6168570;28;96959;-59
2020/12/12 13:38:01;;;;;;;;;40.50;33.00;;;;;9.20;49.57;97615.53;6185684;28;97484;-59
2020/12/12 13:41:04;;;;;;;;;39.00;34.00;;;;;9.19;49.61;97614.72;6184981;28;96718;-60
2020/12/12 13:44:06;;;;;;;;;40.00;33.00;;;;;9.33;49.60;97634.88;6185418;28;96598;-60
2020/12/12 13:47:07;;;;;;;;;36.80;32.00;;;;;9.37;49.53;97633.31;6182635;28;97508;-59
2020/12/12 13:50:09;;;;;;;;;38.00;31.00;;;;;9.25;49.56;97616.44;6184074;28;97403;-60
2020/12/12 13:53:10;;;;;;;;;41.50;32.50;;;;;8.98;50.21;97618.94;6183792;28;97589;-60
2020/12/12 13:56:12;;;;;;;;;40.75;30.00;;;;;8.71;51.02;97634.00;6181953;28;98493;-59
2020/12/12 13:59:13;;;;;;;;;39.00;32.00;;;;;8.83;51.07;97633.97;6184137;28;97392;-60
2020/12/12 14:02:15;;;;;;;;;43.50;32.50;;;;;8.94;50.94;97623.16;6185200;28;98649;-60
2020/12/12 14:05:16;;;;;;;;;44.60;35.20;;;;;9.00;50.82;97626.75;6184896;28;98437;-60
2020/12/12 14:08:53;;;;;;;;;40.67;34.00;;;;;9.03;50.84;97635.16;6183527;28;97467;-60
2020/12/12 14:24:45;;;;;;;;;44.60;35.00;;;;;9.12;51.12;97631.00;6170310;28;98443;-60
2020/12/12 14:31:26;;;;;;;;;47.60;37.00;;;;;8.94;51.04;97607.03;6146615;28;97480;-60
2020/12/12 14:34:27;;;;;;;;;44.00;34.60;;;;;9.21;51.17;97644.06;6181015;28;97027;-60
2020/12/12 14:37:29;;;;;;;;;45.00;34.80;;;;;9.20;50.95;97645.91;6183516;28;96475;-60
2020/12/12 14:40:31;;;;;;;;;47.00;36.20;;;;;9.22;50.99;97651.88;6181401;28;97528;-60